createdAt,value
2023-05-20T00:02:21.053Z,5.57
2023-05-20T00:04:49.727Z,4.60
2023-05-20T00:07:16.974Z,6.13
2023-05-20T00:09:45.158Z,4.03
2023-05-20T00:12:12.374Z,6.57
2023-05-20T00:14:39.684Z,5.03
2023-05-20T00:17:06.867Z,6.40
2023-05-20T00:19:34.130Z,6.40
2023-05-20T00:22:02.874Z,5.05
2023-05-20T00:24:30.079Z,4.10
2023-05-20T00:26:57.302Z,4.68
2023-05-20T00:29:24.601Z,5.63
2023-05-20T00:31:51.832Z,4.28
2023-05-20T00:34:19.790Z,6.05
2023-05-20T00:36:47.010Z,5.60
2023-05-20T00:39:15.580Z,4.35
2023-05-20T00:41:42.831Z,5.82
2023-05-20T00:44:10.078Z,5.45
2023-05-20T00:46:37.430Z,4.82
2023-05-20T00:49:05.043Z,6.00
2023-05-20T00:51:33.367Z,6.43
2023-05-20T00:54:00.727Z,12.30
2023-05-20T00:56:29.562Z,4.65
2023-05-20T00:58:57.752Z,5.35
2023-05-20T01:01:25.043Z,7.95
2023-05-20T01:03:52.473Z,5.97
2023-05-20T01:06:19.728Z,12.93
2023-05-20T01:08:47.041Z,6.65
2023-05-20T01:11:19.691Z,7.20
2023-05-20T01:13:54.202Z,3.88
2023-05-20T01:16:24.255Z,4.18
2023-05-20T01:18:55.300Z,4.38
2023-05-20T01:21:23.092Z,5.70
2023-05-20T01:23:51.714Z,9.90
2023-05-20T01:26:19.069Z,5.43
2023-05-20T01:28:46.744Z,6.38
2023-05-20T01:31:18.164Z,4.47
2023-05-20T01:33:49.414Z,5.40
2023-05-20T01:36:17.358Z,4.50
2023-05-20T01:38:46.163Z,6.18
2023-05-20T01:41:15.074Z,6.80
2023-05-20T01:43:44.117Z,8.02
2023-05-20T01:46:11.463Z,4.88
2023-05-20T01:48:38.678Z,4.05
2023-05-20T01:51:06.089Z,7.38
2023-05-20T01:53:33.556Z,4.85
2023-05-20T01:56:00.770Z,6.70
2023-05-20T01:58:29.680Z,4.28
2023-05-20T02:00:56.960Z,4.88
2023-05-20T02:03:24.256Z,5.80
2023-05-20T02:05:51.611Z,4.75
2023-05-20T02:08:18.895Z,5.22
2023-05-20T02:10:48.094Z,7.28
2023-05-20T02:13:15.300Z,4.32
2023-05-20T02:15:44.114Z,4.82
2023-05-20T02:18:11.354Z,7.65
2023-05-20T02:20:38.644Z,5.25
2023-05-20T02:23:05.870Z,5.20
2023-05-20T02:25:33.508Z,4.50
2023-05-20T02:28:00.918Z,4.55
2023-05-20T02:30:28.458Z,6.15
2023-05-20T02:32:58.557Z,12.02
2023-05-20T02:35:25.908Z,6.32
2023-05-20T02:37:53.403Z,7.05
2023-05-20T02:40:20.908Z,6.05
2023-05-20T02:42:48.172Z,5.95
2023-05-20T02:45:15.616Z,7.03
2023-05-20T02:47:43.067Z,6.63
2023-05-20T02:50:11.889Z,7.30
2023-05-20T02:52:39.176Z,8.23
2023-05-20T02:55:07.176Z,7.90
2023-05-20T02:57:34.782Z,4.97
2023-05-20T03:00:02.052Z,7.47
2023-05-20T03:02:29.268Z,6.15
2023-05-20T03:04:56.541Z,8.10
2023-05-20T03:07:25.291Z,10.13
2023-05-20T03:09:52.541Z,6.60
2023-05-20T03:12:19.795Z,7.43
2023-05-20T03:14:47.030Z,7.65
2023-05-20T03:17:14.288Z,8.55
2023-05-20T03:19:41.505Z,6.82
2023-05-20T03:22:08.924Z,7.97
2023-05-20T03:24:37.808Z,6.18
2023-05-20T03:27:06.144Z,6.70
2023-05-20T03:29:35.255Z,5.90
2023-05-20T03:32:03.057Z,4.70
2023-05-20T03:34:30.961Z,5.45
2023-05-20T03:36:58.859Z,6.18
2023-05-20T03:39:26.128Z,8.25
2023-05-20T03:41:54.703Z,6.63
2023-05-20T03:44:21.916Z,6.50
2023-05-20T03:46:49.611Z,6.10
2023-05-20T03:49:17.058Z,5.75
2023-05-20T03:51:44.689Z,6.63
2023-05-20T03:54:13.305Z,6.78
2023-05-20T03:56:41.293Z,9.00
2023-05-20T03:59:10.012Z,5.65
2023-05-20T04:01:37.282Z,6.13
2023-05-20T04:04:04.911Z,6.15
2023-05-20T04:06:32.590Z,6.85
2023-05-20T04:09:00.782Z,6.95
2023-05-20T04:11:27.978Z,8.25
2023-05-20T04:13:55.340Z,9.00
2023-05-20T04:16:24.738Z,7.72
2023-05-20T04:18:52.119Z,8.30
2023-05-20T04:21:19.667Z,7.45
2023-05-20T04:23:47.283Z,6.72
2023-05-20T04:26:14.544Z,10.30
2023-05-20T04:28:41.748Z,9.10
2023-05-20T04:31:09.036Z,8.55
2023-05-20T04:33:38.381Z,6.47
2023-05-20T04:36:07.705Z,7.53
2023-05-20T04:38:35.517Z,7.55
2023-05-20T04:41:02.843Z,6.13
2023-05-20T04:43:30.536Z,8.70
2023-05-20T04:45:59.498Z,7.55
2023-05-20T04:48:27.332Z,10.52
2023-05-20T04:50:55.954Z,8.23
2023-05-20T04:53:23.255Z,8.23
2023-05-20T04:55:54.187Z,7.75
2023-05-20T04:58:21.752Z,6.75
2023-05-20T05:00:48.980Z,8.20
2023-05-20T05:03:16.236Z,9.15
2023-05-20T05:05:43.792Z,8.35
2023-05-20T05:08:12.407Z,8.18
2023-05-20T05:10:45.287Z,8.10
2023-05-20T05:13:12.537Z,8.65
2023-05-20T05:15:39.827Z,8.82
2023-05-20T05:18:07.229Z,9.20
2023-05-20T05:20:35.938Z,11.23
2023-05-20T05:23:03.101Z,7.97
2023-05-20T05:25:31.918Z,9.63
2023-05-20T05:28:00.399Z,9.60
2023-05-20T05:30:27.712Z,7.32
2023-05-20T05:32:55.085Z,9.60
2023-05-20T05:35:23.135Z,9.43
2023-05-20T05:37:51.079Z,7.35
2023-05-20T05:40:19.074Z,10.30
2023-05-20T05:42:48.299Z,8.93
2023-05-20T05:45:15.757Z,10.50
2023-05-20T05:47:43.146Z,9.20
2023-05-20T05:50:10.668Z,9.18
2023-05-20T05:52:38.418Z,7.57
2023-05-20T05:55:10.260Z,12.50
2023-05-20T05:57:37.531Z,9.20
2023-05-20T06:00:07.618Z,9.68
2023-05-20T06:02:45.562Z,12.20
2023-05-20T06:05:17.795Z,11.07
2023-05-20T06:07:46.099Z,11.70
2023-05-20T06:10:13.607Z,12.27
2023-05-20T06:12:40.877Z,9.52
2023-05-20T06:15:10.739Z,12.75
2023-05-20T06:17:38.669Z,11.98
2023-05-20T06:20:07.328Z,9.55
2023-05-20T06:22:35.255Z,12.15
2023-05-20T06:25:02.747Z,12.48
2023-05-20T06:27:31.534Z,13.35
2023-05-20T06:29:58.765Z,10.25
2023-05-20T06:32:27.415Z,9.77
2023-05-20T06:34:56.666Z,8.68
2023-05-20T06:37:24.038Z,11.05
2023-05-20T06:39:52.866Z,11.98
2023-05-20T06:42:21.072Z,9.52
2023-05-20T06:45:02.266Z,9.80
2023-05-20T06:47:53.880Z,8.63
2023-05-20T06:50:21.215Z,12.00
2023-05-20T06:52:48.479Z,11.63
2023-05-20T06:55:16.523Z,11.23
2023-05-20T06:57:43.805Z,11.60
2023-05-20T07:00:12.600Z,12.57
2023-05-20T07:02:42.254Z,11.95
2023-05-20T07:05:12.413Z,12.48
2023-05-20T07:07:39.929Z,13.90
2023-05-20T07:10:08.564Z,11.13
2023-05-20T07:12:36.973Z,12.07
2023-05-20T07:15:05.389Z,10.82
2023-05-20T07:17:33.856Z,11.05
2023-05-20T07:20:01.191Z,10.40
2023-05-20T07:22:31.429Z,11.70
2023-05-20T07:25:17.117Z,13.20
2023-05-20T07:27:44.375Z,9.52
2023-05-20T07:30:12.128Z,11.52
2023-05-20T07:32:41.166Z,13.63
2023-05-20T07:35:09.518Z,10.98
2023-05-20T07:37:38.209Z,11.05
2023-05-20T07:40:07.760Z,10.05
2023-05-20T07:42:35.298Z,10.45
2023-05-20T07:45:02.663Z,12.60
2023-05-20T07:47:31.382Z,10.82
2023-05-20T07:49:58.685Z,10.85
2023-05-20T07:52:26.117Z,10.80
2023-05-20T07:54:54.787Z,13.05
2023-05-20T07:57:22.747Z,12.45
2023-05-20T07:59:50.078Z,11.10
2023-05-20T08:02:17.678Z,12.10
2023-05-20T08:04:45.672Z,12.25
2023-05-20T08:07:14.189Z,11.27
2023-05-20T08:09:49.129Z,11.20
2023-05-20T08:12:18.278Z,10.95
2023-05-20T08:14:45.814Z,11.35
2023-05-20T08:17:13.220Z,12.80
2023-05-20T08:19:40.629Z,10.73
2023-05-20T08:22:07.903Z,12.48
2023-05-20T08:24:35.549Z,11.13
2023-05-20T08:27:02.764Z,10.70
2023-05-20T08:29:31.353Z,13.77
2023-05-20T08:31:59.825Z,11.48
2023-05-20T08:34:27.857Z,10.88
2023-05-20T08:36:55.114Z,11.60
2023-05-20T08:39:22.336Z,13.82
2023-05-20T08:41:50.799Z,11.57
2023-05-20T08:44:20.290Z,13.05
2023-05-20T08:46:49.617Z,11.30
2023-05-20T08:49:17.089Z,13.65
2023-05-20T08:51:44.307Z,11.20
2023-05-20T08:54:13.311Z,13.82
2023-05-20T08:56:41.092Z,11.77
2023-05-20T08:59:08.881Z,11.25
2023-05-20T09:01:41.677Z,11.60
2023-05-20T09:04:10.482Z,11.43
2023-05-20T09:06:44.540Z,15.07
2023-05-20T09:09:12.228Z,11.45
2023-05-20T09:11:39.678Z,13.40
2023-05-20T09:14:07.253Z,13.50
2023-05-20T09:16:34.982Z,11.35
2023-05-20T09:19:02.470Z,14.73
2023-05-20T09:21:31.073Z,11.75
2023-05-20T09:24:01.768Z,12.85
2023-05-20T09:26:29.280Z,11.37
2023-05-20T09:28:56.836Z,12.70
2023-05-20T09:31:26.848Z,10.10
2023-05-20T09:33:55.325Z,11.95
2023-05-20T09:36:23.529Z,11.40
2023-05-20T09:38:53.179Z,10.70
2023-05-20T09:41:24.063Z,11.05
2023-05-20T09:43:53.499Z,10.52
2023-05-20T09:46:20.935Z,11.80
2023-05-20T09:48:48.651Z,12.23
2023-05-20T09:51:16.835Z,13.10
2023-05-20T09:53:44.233Z,9.98
2023-05-20T09:56:12.934Z,10.27
2023-05-20T09:58:42.233Z,14.35
2023-05-20T10:01:09.458Z,11.38
2023-05-20T10:03:37.184Z,10.05
2023-05-20T10:06:26.203Z,12.60
2023-05-20T10:09:14.596Z,15.10
2023-05-20T10:11:51.026Z,10.18
2023-05-20T10:14:33.656Z,9.73
2023-05-20T10:17:07.533Z,11.45
2023-05-20T10:19:34.872Z,11.57
2023-05-20T10:22:03.728Z,11.15
2023-05-20T10:24:32.553Z,12.10
2023-05-20T10:27:04.944Z,10.77
2023-05-20T10:29:43.555Z,12.95
2023-05-20T10:32:10.838Z,14.68
2023-05-20T10:34:46.493Z,11.95
2023-05-20T10:37:23.521Z,12.20
2023-05-20T10:39:50.759Z,10.43
2023-05-20T10:42:28.349Z,12.65
2023-05-20T10:44:55.573Z,11.82
2023-05-20T10:47:25.767Z,9.77
2023-05-20T10:49:53.662Z,9.43
2023-05-20T10:52:21.443Z,11.40
2023-05-20T10:54:56.019Z,12.57
2023-05-20T10:57:26.686Z,12.13
2023-05-20T10:59:54.773Z,12.88
2023-05-20T11:02:22.379Z,10.10
2023-05-20T11:04:49.878Z,12.18
2023-05-20T11:07:25.139Z,14.85
2023-05-20T11:09:52.343Z,12.10
2023-05-20T11:12:19.582Z,11.25
2023-05-20T11:14:49.465Z,14.48
2023-05-20T11:17:16.869Z,11.73
2023-05-20T11:19:44.123Z,13.65
2023-05-20T11:22:11.357Z,11.82
2023-05-20T11:24:38.605Z,10.93
2023-05-20T11:27:06.993Z,10.73
2023-05-20T11:29:34.231Z,12.23
2023-05-20T11:32:02.907Z,14.70
2023-05-20T11:34:35.506Z,11.32
2023-05-20T11:37:02.765Z,12.07
2023-05-20T11:39:30.407Z,13.00
2023-05-20T11:41:58.118Z,11.95
2023-05-20T11:44:26.003Z,11.35
2023-05-20T11:47:00.189Z,12.25
2023-05-20T11:49:28.844Z,13.25
2023-05-20T11:51:56.683Z,12.52
2023-05-20T11:54:24.805Z,13.82
2023-05-20T11:56:54.216Z,15.65
2023-05-20T11:59:23.977Z,9.18
2023-05-20T12:01:51.239Z,14.05
2023-05-20T12:04:18.779Z,13.32
2023-05-20T12:06:47.750Z,14.65
2023-05-20T12:09:15.020Z,13.95
2023-05-20T12:11:42.431Z,12.85
2023-05-20T12:14:09.962Z,15.48
2023-05-20T12:16:38.063Z,15.48
2023-05-20T12:19:05.565Z,15.90
2023-05-20T12:21:32.814Z,16.63
2023-05-20T12:24:01.515Z,13.48
2023-05-20T12:26:29.696Z,15.07
2023-05-20T12:28:57.541Z,15.13
2023-05-20T12:31:25.441Z,17.90
2023-05-20T12:33:52.812Z,12.88
2023-05-20T12:36:20.135Z,14.68
2023-05-20T12:38:47.423Z,13.15
2023-05-20T12:41:16.026Z,14.82
2023-05-20T12:43:43.238Z,18.05
2023-05-20T12:46:10.559Z,14.70
2023-05-20T12:48:38.176Z,14.13
2023-05-20T12:51:05.934Z,14.55
2023-05-20T12:53:33.169Z,18.50
2023-05-20T12:56:00.440Z,15.40
2023-05-20T12:58:29.006Z,14.82
2023-05-20T13:00:56.268Z,14.45
2023-05-20T13:03:23.485Z,15.32
2023-05-20T13:05:50.715Z,15.65
2023-05-20T13:08:17.937Z,15.32
2023-05-20T13:10:45.146Z,15.50
2023-05-20T13:13:12.413Z,14.55
2023-05-20T13:15:40.970Z,14.38
2023-05-20T13:18:08.233Z,16.35
2023-05-20T13:20:35.688Z,14.00
2023-05-20T13:23:03.156Z,14.00
2023-05-20T13:25:30.362Z,16.70
2023-05-20T13:27:57.583Z,15.20
2023-05-20T13:30:24.996Z,15.70
2023-05-20T13:32:53.643Z,16.00
2023-05-20T13:35:21.194Z,15.52
2023-05-20T13:37:48.425Z,15.60
2023-05-20T13:40:15.674Z,16.67
2023-05-20T13:42:42.998Z,16.85
2023-05-20T13:45:11.143Z,18.60
2023-05-20T13:47:38.331Z,13.77
2023-05-20T13:50:08.914Z,17.17
2023-05-20T13:52:36.145Z,17.33
2023-05-20T13:55:03.838Z,16.55
2023-05-20T13:57:31.039Z,17.23
2023-05-20T13:59:58.289Z,16.50
2023-05-20T14:02:25.629Z,17.20
2023-05-20T14:04:52.969Z,17.05
2023-05-20T14:07:21.596Z,14.32
2023-05-20T14:09:48.846Z,14.85
2023-05-20T14:12:16.140Z,18.75
2023-05-20T14:14:43.334Z,14.32
2023-05-20T14:17:10.572Z,14.18
2023-05-20T14:19:37.843Z,17.17
2023-05-20T14:22:05.129Z,15.77
2023-05-20T14:24:33.708Z,14.98
2023-05-20T14:27:00.910Z,14.48
2023-05-20T14:29:28.104Z,13.38
2023-05-20T14:31:55.429Z,14.43
2023-05-20T14:34:22.756Z,14.95
2023-05-20T14:36:49.959Z,14.70
2023-05-20T14:39:17.235Z,14.65
2023-05-20T14:41:45.810Z,13.65
2023-05-20T14:44:13.110Z,13.43
2023-05-20T14:46:40.459Z,13.45
2023-05-20T14:49:07.759Z,14.35
2023-05-20T14:51:34.955Z,13.43
2023-05-20T14:54:02.259Z,14.40
2023-05-20T14:56:29.661Z,16.92
2023-05-20T14:58:58.281Z,12.85
2023-05-20T15:01:25.657Z,12.00
2023-05-20T15:03:52.921Z,11.43
2023-05-20T15:06:20.212Z,13.27
2023-05-20T15:08:47.452Z,12.98
2023-05-20T15:11:14.710Z,12.63
2023-05-20T15:13:50.080Z,13.35
2023-05-20T15:16:17.516Z,13.20
2023-05-20T15:18:44.839Z,13.50
2023-05-20T15:21:12.119Z,14.95
2023-05-20T15:23:39.333Z,13.15
2023-05-20T15:26:06.628Z,13.32
2023-05-20T15:28:33.868Z,14.60
2023-05-20T15:31:02.420Z,13.30
2023-05-20T15:33:29.699Z,15.60
2023-05-20T15:35:56.952Z,14.13
2023-05-20T15:38:24.306Z,14.27
2023-05-20T15:40:51.526Z,15.40
2023-05-20T15:43:19.467Z,16.23
2023-05-20T15:45:46.732Z,19.02
2023-05-20T15:48:15.916Z,14.90
2023-05-20T15:50:43.164Z,15.55
2023-05-20T15:53:10.379Z,16.90
2023-05-20T15:55:37.689Z,14.48
2023-05-20T15:58:04.919Z,13.43
2023-05-20T16:00:32.465Z,16.17
2023-05-20T16:02:59.842Z,14.80
2023-05-20T16:05:28.483Z,14.00
2023-05-20T16:07:55.690Z,18.48
2023-05-20T16:10:25.330Z,18.02
2023-05-20T16:12:53.308Z,15.45
2023-05-20T16:15:20.524Z,17.00
2023-05-20T16:17:47.744Z,17.65
2023-05-20T16:20:15.004Z,15.88
2023-05-20T16:22:43.664Z,17.23
2023-05-20T16:25:10.987Z,18.60
2023-05-20T16:27:38.229Z,17.90
2023-05-20T16:30:07.666Z,18.35
2023-05-20T16:32:34.936Z,15.73
2023-05-20T16:35:02.353Z,19.08
2023-05-20T16:37:29.656Z,17.00
2023-05-20T16:39:58.225Z,19.73
2023-05-20T16:42:25.444Z,17.88
2023-05-20T16:44:52.641Z,17.90
2023-05-20T16:47:19.858Z,18.02
2023-05-20T16:49:47.071Z,19.92
2023-05-20T16:52:14.452Z,21.02
2023-05-20T16:54:41.669Z,18.60
2023-05-20T16:57:10.275Z,16.85
2023-05-20T16:59:37.450Z,19.73
2023-05-20T17:02:04.903Z,16.88
2023-05-20T17:04:32.099Z,19.98
2023-05-20T17:06:59.276Z,18.98
2023-05-20T17:09:26.477Z,18.38
2023-05-20T17:11:53.668Z,18.00
2023-05-20T17:14:22.226Z,20.75
2023-05-20T17:16:49.512Z,18.25
2023-05-20T17:19:16.814Z,18.90
2023-05-20T17:21:44.016Z,20.38
2023-05-20T17:24:11.251Z,20.42
2023-05-20T17:26:38.523Z,24.17
2023-05-20T17:29:05.748Z,22.55
2023-05-20T17:31:34.313Z,22.30
2023-05-20T17:34:01.501Z,21.80
2023-05-20T17:36:28.882Z,21.08
2023-05-20T17:38:56.084Z,23.30
2023-05-20T17:41:23.376Z,20.30
2023-05-20T17:43:50.571Z,23.65
2023-05-20T17:46:17.845Z,20.98
2023-05-20T17:48:46.481Z,22.75
2023-05-20T17:51:13.933Z,19.73
2023-05-20T17:53:41.152Z,23.85
2023-05-20T17:56:08.397Z,19.42
2023-05-20T17:58:35.586Z,19.88
2023-05-20T18:01:02.822Z,19.20
2023-05-20T18:03:30.103Z,19.38
2023-05-20T18:05:58.765Z,23.08
2023-05-20T18:08:26.006Z,20.13
2023-05-20T18:10:53.293Z,20.60
2023-05-20T18:13:20.507Z,20.38
2023-05-20T18:15:47.775Z,22.10
2023-05-20T18:18:15.140Z,21.20
2023-05-20T18:20:42.372Z,24.00
2023-05-20T18:23:10.978Z,20.67
2023-05-20T18:25:39.886Z,22.40
2023-05-20T18:28:08.369Z,21.25
2023-05-20T18:30:35.827Z,21.83
2023-05-20T18:33:03.216Z,22.98
2023-05-20T18:35:30.483Z,23.50
2023-05-20T18:37:57.650Z,21.27
2023-05-20T18:40:26.200Z,21.75
2023-05-20T18:42:53.396Z,25.63
2023-05-20T18:45:20.633Z,23.52
2023-05-20T18:47:47.899Z,21.70
2023-05-20T18:50:15.274Z,25.50
2023-05-20T18:52:42.484Z,22.08
2023-05-20T18:55:09.870Z,25.48
2023-05-20T18:57:38.494Z,22.48
2023-05-20T19:00:07.201Z,22.33
2023-05-20T19:02:34.445Z,23.45
2023-05-20T19:05:01.732Z,22.13
2023-05-20T19:07:28.988Z,26.98
2023-05-20T19:09:56.205Z,24.10
2023-05-20T19:12:23.416Z,22.17
2023-05-20T19:14:51.996Z,25.30
2023-05-20T19:17:20.937Z,20.58
2023-05-20T19:19:48.960Z,23.52
2023-05-20T19:22:16.308Z,23.20
2023-05-20T19:24:43.536Z,25.48
2023-05-20T19:27:10.773Z,23.52
2023-05-20T19:29:37.958Z,24.58
2023-05-20T19:32:07.237Z,21.77
2023-05-20T19:34:34.471Z,22.20
2023-05-20T19:37:01.724Z,23.00
2023-05-20T19:39:28.968Z,22.25
2023-05-20T19:41:56.161Z,21.52
2023-05-20T19:44:23.602Z,23.85
2023-05-20T19:46:51.089Z,21.05
2023-05-20T19:49:19.752Z,22.02
2023-05-20T19:51:46.973Z,27.13
2023-05-20T19:54:14.166Z,23.60
2023-05-20T19:56:41.391Z,23.95
2023-05-20T19:59:08.603Z,26.60
2023-05-20T20:01:35.818Z,31.67
2023-05-20T20:04:03.245Z,23.80
2023-05-20T20:06:31.870Z,24.10
2023-05-20T20:08:59.058Z,26.27
2023-05-20T20:11:26.251Z,23.15
2023-05-20T20:13:53.460Z,23.83
2023-05-20T20:16:20.738Z,23.50
2023-05-20T20:18:48.464Z,22.83
2023-05-20T20:21:15.717Z,26.60
2023-05-20T20:23:44.260Z,23.73
2023-05-20T20:26:11.734Z,21.23
2023-05-20T20:28:38.928Z,23.02
2023-05-20T20:31:06.163Z,22.92
2023-05-20T20:33:33.372Z,23.63
2023-05-20T20:36:00.549Z,24.30
2023-05-20T20:38:27.767Z,25.30
2023-05-20T20:40:56.361Z,25.67
2023-05-20T20:43:23.593Z,26.58
2023-05-20T20:45:50.920Z,23.60
2023-05-20T20:48:18.492Z,23.73
2023-05-20T20:50:46.439Z,23.33
2023-05-20T20:53:13.958Z,25.08
2023-05-20T20:55:41.501Z,27.00
2023-05-20T20:58:10.272Z,24.42
2023-05-20T21:00:37.967Z,26.30
2023-05-20T21:03:05.376Z,25.48
2023-05-20T21:05:32.630Z,26.33
2023-05-20T21:07:59.791Z,29.05
2023-05-20T21:10:27.012Z,24.80
2023-05-20T21:12:54.441Z,25.95
2023-05-20T21:15:23.306Z,25.85
2023-05-20T21:17:50.878Z,25.55
2023-05-20T21:20:21.042Z,24.55
2023-05-20T21:22:49.078Z,25.90
2023-05-20T21:25:16.528Z,29.42
2023-05-20T21:27:43.697Z,29.20
2023-05-20T21:30:12.075Z,24.98
2023-05-20T21:32:40.655Z,22.92
2023-05-20T21:35:08.952Z,21.35
2023-05-20T21:37:36.172Z,21.98
2023-05-20T21:40:03.905Z,27.70
2023-05-20T21:42:31.120Z,23.63
2023-05-20T21:44:58.302Z,24.85
2023-05-20T21:47:25.510Z,26.27
2023-05-20T21:49:54.123Z,22.25
2023-05-20T21:52:21.291Z,24.63
2023-05-20T21:54:49.169Z,29.27
2023-05-20T21:57:16.382Z,23.05
2023-05-20T21:59:43.564Z,23.38
2023-05-20T22:02:10.782Z,28.35
2023-05-20T22:04:38.026Z,23.02
2023-05-20T22:07:06.766Z,24.50
2023-05-20T22:09:33.977Z,23.05
2023-05-20T22:12:01.262Z,23.20
2023-05-20T22:14:28.573Z,22.65
2023-05-20T22:16:55.851Z,21.08
2023-05-20T22:19:23.137Z,24.95
2023-05-20T22:21:51.207Z,23.58
2023-05-20T22:24:19.945Z,24.25
2023-05-20T22:26:47.226Z,22.63
2023-05-20T22:29:14.458Z,26.92
2023-05-20T22:31:41.692Z,23.85
2023-05-20T22:34:08.891Z,23.23
2023-05-20T22:36:36.104Z,24.23
2023-05-20T22:39:03.854Z,24.05
2023-05-20T22:41:32.549Z,27.35
2023-05-20T22:43:59.717Z,25.38
2023-05-20T22:46:26.982Z,27.25
2023-05-20T22:48:54.195Z,22.30
2023-05-20T22:51:21.878Z,29.98
2023-05-20T22:53:49.226Z,23.30
2023-05-20T22:56:17.259Z,22.38
2023-05-20T22:58:45.965Z,23.85
2023-05-20T23:01:13.337Z,25.33
2023-05-20T23:03:40.680Z,24.15
2023-05-20T23:06:07.880Z,24.50
2023-05-20T23:08:35.072Z,23.00
2023-05-20T23:11:02.321Z,23.75
2023-05-20T23:13:29.514Z,26.00
2023-05-20T23:15:58.061Z,25.20
2023-05-20T23:18:25.239Z,23.50
2023-05-20T23:20:52.470Z,24.10
2023-05-20T23:23:25.135Z,25.65
2023-05-20T23:25:58.194Z,25.52
2023-05-20T23:28:25.454Z,24.77
2023-05-20T23:30:52.700Z,23.80
2023-05-20T23:33:25.175Z,25.02
2023-05-20T23:35:53.055Z,25.23
2023-05-20T23:38:20.503Z,25.92
2023-05-20T23:40:47.906Z,23.92
2023-05-20T23:43:15.311Z,25.55
2023-05-20T23:45:42.716Z,23.63
2023-05-20T23:48:09.913Z,25.35
2023-05-20T23:50:38.898Z,24.60
2023-05-20T23:53:06.179Z,25.60
2023-05-20T23:55:33.468Z,27.40
2023-05-20T23:58:00.792Z,29.65
